Time;durP1;ratioP1;P1;durP2;ratioP2;P2;SDS_P1;SDS_P2;PMS_P1;PMS_P2;Temp;Humidity;BMP_temperature;BMP_pressure;BME280_temperature;BME280_humidity;BME280_pressure;Samples;Min_cycle;Max_cycle;Signal;HPM_P1;HPM_P2
2023/03/03 00:00:05;;;;;;;11.07;9.30;;;;;;;;;;5057567;28;20175;-69
2023/03/03 00:02:30;;;;;;;11.67;10.47;;;;;;;;;;5053729;28;20221;-70
2023/03/03 00:04:55;;;;;;;10.30;8.90;;;;;;;;;;5055096;28;20191;-69
2023/03/03 00:07:22;;;;;;;10.73;9.63;;;;;;;;;;5053885;28;20179;-69
2023/03/03 00:09:48;;;;;;;10.70;9.60;;;;;;;;;;5054309;28;20210;-70
2023/03/03 00:12:29;;;;;;;11.23;10.00;;;;;;;;;;5053672;28;20450;-70
2023/03/03 00:14:54;;;;;;;10.87;9.77;;;;;;;;;;5051009;28;20933;-70
2023/03/03 00:17:22;;;;;;;11.30;9.70;;;;;;;;;;5057695;28;20493;-70
2023/03/03 00:19:48;;;;;;;11.07;9.80;;;;;;;;;;5056278;28;20183;-69
2023/03/03 00:22:16;;;;;;;11.10;9.97;;;;;;;;;;5056970;28;20430;-69
2023/03/03 00:24:41;;;;;;;10.70;9.60;;;;;;;;;;5056714;28;20447;-69
2023/03/03 00:27:15;;;;;;;10.63;9.53;;;;;;;;;;5056229;28;20429;-69
2023/03/03 00:29:44;;;;;;;11.40;10.30;;;;;;;;;;5054779;28;20189;-69
2023/03/03 00:32:16;;;;;;;11.40;10.03;;;;;;;;;;5051597;28;20461;-70
2023/03/03 00:34:42;;;;;;;11.33;10.23;;;;;;;;;;5055199;28;20955;-70
2023/03/03 00:37:16;;;;;;;11.00;9.90;;;;;;;;;;5058279;28;20912;-70
2023/03/03 00:39:41;;;;;;;10.83;9.67;;;;;;;;;;5046942;28;20410;-69
2023/03/03 00:42:17;;;;;;;10.57;9.47;;;;;;;;;;5054192;28;20437;-70
2023/03/03 00:44:55;;;;;;;9.30;8.33;;;;;;;;;;5061107;28;20194;-69
2023/03/03 00:47:24;;;;;;;10.30;9.17;;;;;;;;;;5054878;28;20421;-69
2023/03/03 00:49:49;;;;;;;9.77;8.77;;;;;;;;;;5058115;28;20437;-70
2023/03/03 00:52:16;;;;;;;9.07;8.17;;;;;;;;;;5057668;28;20457;-70
2023/03/03 00:54:41;;;;;;;9.40;8.40;;;;;;;;;;5060141;28;20267;-69
2023/03/03 00:57:07;;;;;;;9.20;8.30;;;;;;;;;;5057460;28;20943;-69
2023/03/03 00:59:32;;;;;;;8.40;7.60;;;;;;;;;;5060373;28;20589;-70
2023/03/03 01:01:57;;;;;;;8.80;8.00;;;;;;;;;;5058437;28;20206;-69
2023/03/03 01:04:22;;;;;;;8.57;7.73;;;;;;;;;;5060745;28;20189;-69
2023/03/03 01:06:48;;;;;;;8.20;7.40;;;;;;;;;;5060624;28;20649;-69
2023/03/03 01:09:13;;;;;;;8.70;7.80;;;;;;;;;;5059107;28;20188;-69
2023/03/03 01:11:39;;;;;;;8.40;7.60;;;;;;;;;;5053203;28;20576;-69
2023/03/03 01:14:07;;;;;;;7.87;7.07;;;;;;;;;;5058706;28;20198;-69
2023/03/03 01:16:32;;;;;;;8.00;6.80;;;;;;;;;;5059841;28;20211;-69
2023/03/03 01:18:58;;;;;;;8.77;7.23;;;;;;;;;;5057929;28;20445;-70
2023/03/03 01:21:23;;;;;;;7.70;6.90;;;;;;;;;;5060697;28;20425;-69
2023/03/03 01:23:48;;;;;;;7.73;7.03;;;;;;;;;;5058981;28;20183;-69
2023/03/03 01:26:14;;;;;;;7.77;7.07;;;;;;;;;;5056456;28;20211;-69
2023/03/03 01:28:39;;;;;;;8.70;7.67;;;;;;;;;;5056090;28;20633;-70
2023/03/03 01:31:04;;;;;;;9.20;8.30;;;;;;;;;;5061186;28;20192;-70
2023/03/03 01:33:30;;;;;;;8.67;7.53;;;;;;;;;;5057246;28;20237;-69
2023/03/03 01:35:55;;;;;;;8.17;7.33;;;;;;;;;;5056759;28;20280;-69
2023/03/03 01:38:21;;;;;;;8.90;7.67;;;;;;;;;;5054944;28;20419;-69
2023/03/03 01:40:51;;;;;;;8.23;7.33;;;;;;;;;;5052072;28;20589;-69
2023/03/03 01:43:16;;;;;;;8.40;7.40;;;;;;;;;;5052238;28;20179;-69
2023/03/03 01:46:02;;;;;;;8.00;7.20;;;;;;;;;;5060014;28;20444;-69
2023/03/03 01:48:33;;;;;;;8.23;7.43;;;;;;;;;;5056851;28;20201;-69
2023/03/03 01:50:58;;;;;;;8.83;7.90;;;;;;;;;;5059516;28;20417;-70
2023/03/03 01:53:44;;;;;;;9.70;8.63;;;;;;;;;;5057300;28;20483;-69
2023/03/03 01:56:12;;;;;;;8.30;7.50;;;;;;;;;;5057657;28;20624;-69
2023/03/03 01:58:42;;;;;;;12.63;8.53;;;;;;;;;;5052106;28;20470;-69
2023/03/03 02:01:10;;;;;;;10.10;9.10;;;;;;;;;;5055177;28;20423;-69
2023/03/03 02:03:35;;;;;;;8.43;7.63;;;;;;;;;;5057864;28;20453;-69
2023/03/03 02:06:04;;;;;;;9.00;8.10;;;;;;;;;;5054000;28;20480;-69
2023/03/03 02:08:35;;;;;;;8.87;7.37;;;;;;;;;;5052931;28;20293;-69
2023/03/03 02:11:02;;;;;;;8.43;7.60;;;;;;;;;;5054904;28;20521;-69
2023/03/03 02:13:27;;;;;;;7.80;7.00;;;;;;;;;;5050814;28;20431;-69
2023/03/03 02:15:52;;;;;;;11.10;7.40;;;;;;;;;;5051611;28;20803;-69
2023/03/03 02:18:18;;;;;;;7.97;7.17;;;;;;;;;;5051622;28;20178;-69
2023/03/03 02:20:50;;;;;;;7.20;6.50;;;;;;;;;;5053313;28;20183;-70
2023/03/03 02:23:18;;;;;;;8.10;7.30;;;;;;;;;;5051742;28;20424;-70
2023/03/03 02:25:43;;;;;;;7.50;6.80;;;;;;;;;;5044186;28;20445;-69
2023/03/03 02:28:08;;;;;;;9.43;7.17;;;;;;;;;;5046846;28;20453;-70
2023/03/03 02:30:36;;;;;;;8.27;6.80;;;;;;;;;;5059220;28;20294;-69
2023/03/03 02:33:01;;;;;;;6.80;6.20;;;;;;;;;;5053261;28;20231;-69
2023/03/03 02:35:31;;;;;;;7.13;6.47;;;;;;;;;;5047698;28;20496;-69
2023/03/03 02:38:00;;;;;;;7.55;6.85;;;;;;;;;;5049078;28;20187;-69
2023/03/03 02:40:28;;;;;;;8.40;7.60;;;;;;;;;;5052799;28;20421;-69
2023/03/03 02:42:54;;;;;;;8.10;7.30;;;;;;;;;;5050676;28;21002;-69
2023/03/03 02:45:19;;;;;;;9.43;7.93;;;;;;;;;;5048460;28;20458;-69
2023/03/03 02:47:49;;;;;;;7.97;7.17;;;;;;;;;;5050491;28;20511;-69
2023/03/03 02:50:15;;;;;;;10.20;7.57;;;;;;;;;;5063179;28;20183;-69
2023/03/03 02:52:40;;;;;;;7.87;7.17;;;;;;;;;;5051138;28;20476;-70
2023/03/03 02:55:05;;;;;;;9.43;7.47;;;;;;;;;;5043490;28;20300;-69
2023/03/03 02:57:31;;;;;;;9.73;8.73;;;;;;;;;;5049756;28;20238;-69
2023/03/03 02:59:56;;;;;;;9.70;8.70;;;;;;;;;;5048233;28;20192;-69
2023/03/03 03:02:21;;;;;;;9.90;8.80;;;;;;;;;;5051036;28;20215;-69
2023/03/03 03:04:47;;;;;;;8.60;7.70;;;;;;;;;;5049370;28;20706;-69
2023/03/03 03:07:12;;;;;;;9.23;8.33;;;;;;;;;;5050157;28;20192;-69
2023/03/03 03:09:37;;;;;;;9.53;8.53;;;;;;;;;;5051654;28;20182;-70
2023/03/03 03:12:04;;;;;;;9.10;8.10;;;;;;;;;;5053934;28;20203;-70
2023/03/03 03:14:29;;;;;;;8.33;7.53;;;;;;;;;;5054904;28;20183;-70
2023/03/03 03:16:54;;;;;;;9.17;8.17;;;;;;;;;;5057586;28;20438;-70
2023/03/03 03:19:19;;;;;;;9.27;7.90;;;;;;;;;;5052798;28;20176;-70
2023/03/03 03:21:45;;;;;;;8.87;7.97;;;;;;;;;;5058227;28;20266;-70
2023/03/03 03:24:10;;;;;;;9.17;8.17;;;;;;;;;;5058857;28;20188;-69
2023/03/03 03:26:35;;;;;;;11.30;8.60;;;;;;;;;;5058063;28;20645;-70
2023/03/03 03:29:00;;;;;;;11.57;9.97;;;;;;;;;;5057284;28;20233;-70
2023/03/03 03:31:26;;;;;;;9.17;8.20;;;;;;;;;;5060105;28;20194;-70
2023/03/03 03:33:51;;;;;;;11.27;8.97;;;;;;;;;;5055075;28;20266;-70
2023/03/03 03:36:17;;;;;;;9.50;8.50;;;;;;;;;;5052327;28;20713;-69
2023/03/03 03:38:42;;;;;;;10.40;9.30;;;;;;;;;;5056655;28;20183;-70
2023/03/03 03:41:07;;;;;;;11.70;8.50;;;;;;;;;;5056501;28;20171;-70
2023/03/03 03:43:33;;;;;;;12.50;8.57;;;;;;;;;;5055726;28;20186;-70
2023/03/03 03:45:58;;;;;;;11.40;8.90;;;;;;;;;;5058833;28;20880;-70
2023/03/03 03:48:24;;;;;;;11.23;9.10;;;;;;;;;;5056828;28;20172;-70
2023/03/03 03:50:49;;;;;;;10.63;8.07;;;;;;;;;;5057543;28;20266;-69
2023/03/03 03:53:15;;;;;;;11.70;8.87;;;;;;;;;;5052178;28;20596;-70
2023/03/03 03:55:41;;;;;;;11.30;8.53;;;;;;;;;;5052835;28;20199;-70
2023/03/03 03:58:07;;;;;;;11.07;8.70;;;;;;;;;;5054477;28;20419;-70
2023/03/03 04:00:32;;;;;;;9.40;8.40;;;;;;;;;;5057138;28;20725;-70
2023/03/03 04:02:57;;;;;;;11.27;9.10;;;;;;;;;;5057513;28;20184;-70
2023/03/03 04:05:24;;;;;;;9.57;7.57;;;;;;;;;;5055155;28;20318;-69
2023/03/03 04:07:49;;;;;;;12.50;8.80;;;;;;;;;;5053377;28;20434;-70
2023/03/03 04:10:14;;;;;;;10.30;8.77;;;;;;;;;;5055518;28;20220;-70
2023/03/03 04:12:40;;;;;;;11.40;8.47;;;;;;;;;;5056522;28;20525;-70
2023/03/03 04:15:06;;;;;;;9.77;8.47;;;;;;;;;;5050650;28;20849;-70
2023/03/03 04:17:31;;;;;;;10.37;8.43;;;;;;;;;;5049353;28;20175;-69
2023/03/03 04:19:56;;;;;;;9.40;8.50;;;;;;;;;;5053645;28;20425;-70
2023/03/03 04:22:24;;;;;;;12.00;8.73;;;;;;;;;;5054395;28;20184;-70
2023/03/03 04:24:49;;;;;;;10.63;8.80;;;;;;;;;;5053156;28;20203;-70
2023/03/03 04:27:15;;;;;;;10.40;8.13;;;;;;;;;;5052628;28;20429;-70
2023/03/03 04:29:41;;;;;;;8.63;7.70;;;;;;;;;;5054831;28;20186;-70
2023/03/03 04:32:06;;;;;;;11.67;8.23;;;;;;;;;;5052119;28;20214;-70
2023/03/03 04:34:31;;;;;;;10.27;8.60;;;;;;;;;;5056687;28;20716;-70
2023/03/03 04:36:56;;;;;;;9.93;8.40;;;;;;;;;;5057435;28;20266;-70
2023/03/03 04:39:22;;;;;;;9.97;7.53;;;;;;;;;;5055840;28;20556;-70
2023/03/03 04:41:47;;;;;;;9.83;8.63;;;;;;;;;;5056880;28;20269;-70
2023/03/03 04:44:12;;;;;;;10.17;8.07;;;;;;;;;;5055746;28;20179;-70
2023/03/03 04:46:37;;;;;;;10.23;8.50;;;;;;;;;;5056543;28;20202;-69
2023/03/03 04:49:07;;;;;;;10.60;7.40;;;;;;;;;;5054264;28;21883;-70
2023/03/03 04:51:32;;;;;;;9.47;7.93;;;;;;;;;;5049868;28;20257;-69
2023/03/03 04:53:58;;;;;;;10.63;7.70;;;;;;;;;;5056008;28;20409;-70
2023/03/03 04:56:23;;;;;;;12.30;8.65;;;;;;;;;;5055629;28;20192;-70
2023/03/03 04:58:48;;;;;;;8.37;7.13;;;;;;;;;;5056743;28;20687;-70
2023/03/03 05:01:14;;;;;;;9.80;8.10;;;;;;;;;;5056092;28;20174;-69
2023/03/03 05:03:39;;;;;;;9.50;8.30;;;;;;;;;;5056114;28;20654;-69
2023/03/03 05:06:05;;;;;;;9.20;7.30;;;;;;;;;;5055205;28;20198;-70
2023/03/03 05:08:30;;;;;;;9.50;7.20;;;;;;;;;;5051582;28;20604;-70
2023/03/03 05:10:56;;;;;;;9.30;7.33;;;;;;;;;;5056762;28;20171;-70
2023/03/03 05:13:21;;;;;;;8.70;7.80;;;;;;;;;;5055530;28;20260;-70
2023/03/03 05:15:50;;;;;;;9.40;7.20;;;;;;;;;;5056557;28;20199;-70
2023/03/03 05:18:16;;;;;;;10.40;7.80;;;;;;;;;;5054235;28;20176;-70
2023/03/03 05:20:42;;;;;;;7.90;6.87;;;;;;;;;;5054085;28;20430;-70
2023/03/03 05:23:10;;;;;;;7.90;6.60;;;;;;;;;;5052053;28;20524;-70
2023/03/03 05:25:35;;;;;;;7.63;6.53;;;;;;;;;;5049474;28;20215;-69
2023/03/03 05:28:00;;;;;;;8.00;7.13;;;;;;;;;;5048791;28;20442;-69
2023/03/03 05:30:26;;;;;;;9.67;7.67;;;;;;;;;;5057539;28;20195;-70
2023/03/03 05:32:51;;;;;;;8.27;6.90;;;;;;;;;;5053907;28;20192;-70
2023/03/03 05:35:16;;;;;;;7.73;6.70;;;;;;;;;;5056439;28;20211;-69
2023/03/03 05:37:46;;;;;;;7.73;6.93;;;;;;;;;;5056818;28;20183;-69
2023/03/03 05:40:13;;;;;;;8.03;7.23;;;;;;;;;;5057509;28;20171;-70
2023/03/03 05:42:38;;;;;;;8.63;7.17;;;;;;;;;;5057343;28;20467;-69
2023/03/03 05:45:03;;;;;;;8.07;6.50;;;;;;;;;;5059047;28;20919;-69
2023/03/03 05:47:29;;;;;;;7.37;6.40;;;;;;;;;;5054739;28;20237;-70
2023/03/03 05:49:54;;;;;;;8.23;7.20;;;;;;;;;;5053618;28;20183;-69
2023/03/03 05:52:19;;;;;;;6.70;5.80;;;;;;;;;;5055845;28;20204;-70
2023/03/03 05:54:45;;;;;;;6.40;5.80;;;;;;;;;;5051606;28;20203;-70
2023/03/03 05:57:10;;;;;;;7.00;5.70;;;;;;;;;;5052979;28;20194;-71
2023/03/03 05:59:36;;;;;;;6.63;6.00;;;;;;;;;;5055325;28;20270;-69
2023/03/03 06:02:01;;;;;;;6.57;5.90;;;;;;;;;;5054504;28;20182;-69
2023/03/03 06:04:29;;;;;;;6.27;5.70;;;;;;;;;;5068578;28;20183;-70
2023/03/03 06:06:54;;;;;;;6.00;5.40;;;;;;;;;;5056170;28;20171;-69
2023/03/03 06:09:20;;;;;;;7.50;5.57;;;;;;;;;;5054946;28;20425;-70
2023/03/03 06:11:45;;;;;;;5.53;4.70;;;;;;;;;;5054369;28;20191;-70
2023/03/03 06:14:10;;;;;;;7.60;5.57;;;;;;;;;;5071053;28;20260;-69
2023/03/03 06:16:35;;;;;;;8.53;6.63;;;;;;;;;;5046855;28;20191;-69
2023/03/03 06:19:01;;;;;;;6.07;5.13;;;;;;;;;;5045339;28;20650;-69
2023/03/03 06:21:27;;;;;;;7.00;5.67;;;;;;;;;;5056238;28;20184;-69
2023/03/03 06:23:52;;;;;;;7.33;5.37;;;;;;;;;;5055031;28;20180;-69
2023/03/03 06:26:17;;;;;;;9.37;6.03;;;;;;;;;;5044962;28;25778;-69
2023/03/03 06:28:45;;;;;;;6.60;5.60;;;;;;;;;;5052056;28;20656;-69
2023/03/03 06:31:10;;;;;;;6.80;5.07;;;;;;;;;;5049573;28;20190;-69
2023/03/03 06:33:37;;;;;;;5.70;5.20;;;;;;;;;;5051904;28;20430;-69
2023/03/03 06:36:02;;;;;;;8.10;6.07;;;;;;;;;;5050588;28;20212;-70
2023/03/03 06:38:27;;;;;;;6.20;5.60;;;;;;;;;;5051273;28;20424;-70
2023/03/03 06:40:53;;;;;;;7.27;6.07;;;;;;;;;;5055404;28;20249;-69
2023/03/03 06:43:18;;;;;;;7.60;6.80;;;;;;;;;;5055764;28;20711;-69
2023/03/03 06:45:44;;;;;;;8.70;6.80;;;;;;;;;;5057925;28;20207;-69
2023/03/03 06:48:09;;;;;;;6.73;5.90;;;;;;;;;;5055841;28;20665;-69
2023/03/03 06:50:35;;;;;;;7.53;6.30;;;;;;;;;;5055989;28;20410;-70
2023/03/03 06:53:11;;;;;;;7.40;6.60;;;;;;;;;;5056545;28;20576;-69
2023/03/03 06:55:36;;;;;;;7.83;6.97;;;;;;;;;;5052686;28;20195;-69
2023/03/03 06:58:07;;;;;;;7.70;6.77;;;;;;;;;;5046866;28;20483;-70
2023/03/03 07:00:34;;;;;;;6.87;6.10;;;;;;;;;;5052074;28;20179;-70
2023/03/03 07:03:00;;;;;;;7.00;5.77;;;;;;;;;;5057490;28;20473;-69
2023/03/03 07:05:27;;;;;;;6.20;5.60;;;;;;;;;;5055073;28;20478;-70
2023/03/03 07:07:53;;;;;;;6.70;5.60;;;;;;;;;;5050875;28;20427;-69
2023/03/03 07:10:26;;;;;;;7.40;6.00;;;;;;;;;;5054224;28;20438;-69
2023/03/03 07:12:52;;;;;;;12.53;6.87;;;;;;;;;;5051767;28;20624;-70
2023/03/03 07:15:22;;;;;;;8.20;6.90;;;;;;;;;;5048813;28;20449;-70
2023/03/03 07:17:48;;;;;;;9.70;7.83;;;;;;;;;;5050313;28;20168;-70
2023/03/03 07:20:18;;;;;;;8.77;6.87;;;;;;;;;;5047885;28;20432;-70
2023/03/03 07:22:44;;;;;;;11.17;5.80;;;;;;;;;;5052671;28;20465;-69
2023/03/03 07:25:28;;;;;;;7.27;6.00;;;;;;;;;;5055138;28;20453;-70
2023/03/03 07:27:57;;;;;;;7.20;5.83;;;;;;;;;;5053639;28;20453;-70
2023/03/03 07:30:26;;;;;;;7.50;5.87;;;;;;;;;;5057892;28;20427;-70
2023/03/03 07:32:55;;;;;;;22.40;6.80;;;;;;;;;;5058328;28;20489;-69
2023/03/03 07:35:20;;;;;;;6.63;6.00;;;;;;;;;;5057470;28;21021;-69
2023/03/03 07:37:45;;;;;;;8.10;6.30;;;;;;;;;;5059745;28;20450;-69
2023/03/03 07:40:20;;;;;;;7.57;6.60;;;;;;;;;;5058736;28;20550;-69
2023/03/03 07:42:45;;;;;;;7.63;5.93;;;;;;;;;;5059318;28;20207;-69
2023/03/03 07:45:27;;;;;;;7.93;6.40;;;;;;;;;;5054687;28;20493;-69
2023/03/03 07:48:00;;;;;;;8.07;6.93;;;;;;;;;;5053757;28;20183;-69
2023/03/03 07:50:28;;;;;;;6.97;5.63;;;;;;;;;;5054141;28;20503;-70
2023/03/03 07:52:55;;;;;;;8.67;6.80;;;;;;;;;;5055250;28;20460;-69
2023/03/03 07:55:37;;;;;;;7.87;6.00;;;;;;;;;;5050049;28;20452;-68
2023/03/03 07:58:14;;;;;;;7.07;5.97;;;;;;;;;;5047427;28;20422;-69
2023/03/03 08:00:58;;;;;;;7.17;6.47;;;;;;;;;;5049682;28;20424;-68
2023/03/03 08:03:25;;;;;;;10.10;7.00;;;;;;;;;;5056106;28;20430;-68
2023/03/03 08:05:51;;;;;;;7.30;6.60;;;;;;;;;;5058870;28;20910;-69
2023/03/03 08:08:28;;;;;;;7.60;6.17;;;;;;;;;;5047958;28;20429;-69
2023/03/03 08:10:54;;;;;;;7.30;6.43;;;;;;;;;;5048034;28;20200;-69
2023/03/03 08:13:19;;;;;;;9.73;6.80;;;;;;;;;;5054694;28;20465;-69
2023/03/03 08:15:46;;;;;;;6.70;6.00;;;;;;;;;;5054065;28;20742;-69
2023/03/03 08:18:22;;;;;;;6.87;5.93;;;;;;;;;;5052542;28;20179;-69
2023/03/03 08:20:48;;;;;;;6.93;5.53;;;;;;;;;;5058511;28;20420;-69
2023/03/03 08:23:14;;;;;;;5.70;5.10;;;;;;;;;;5057873;28;20418;-69
2023/03/03 08:25:41;;;;;;;6.67;5.07;;;;;;;;;;5056797;28;20445;-69
2023/03/03 08:28:06;;;;;;;5.40;4.90;;;;;;;;;;5055548;28;20809;-69
2023/03/03 08:30:31;;;;;;;12.03;5.40;;;;;;;;;;5053522;28;20426;-69
2023/03/03 08:32:57;;;;;;;5.97;4.50;;;;;;;;;;5064779;28;20550;-69
2023/03/03 08:35:22;;;;;;;9.03;5.03;;;;;;;;;;5055550;28;20207;-69
2023/03/03 08:37:47;;;;;;;6.07;5.33;;;;;;;;;;5051338;28;20573;-69
2023/03/03 08:40:13;;;;;;;6.43;5.53;;;;;;;;;;5049471;28;20182;-69
2023/03/03 08:42:38;;;;;;;11.00;6.70;;;;;;;;;;5055825;28;20198;-69
2023/03/03 08:45:03;;;;;;;6.70;5.53;;;;;;;;;;5060743;28;20748;-69
2023/03/03 08:47:28;;;;;;;7.30;5.53;;;;;;;;;;5056108;28;20668;-69
2023/03/03 08:49:54;;;;;;;5.60;5.10;;;;;;;;;;5057476;28;20579;-69
2023/03/03 08:52:19;;;;;;;6.40;5.80;;;;;;;;;;5056776;28;20214;-69
2023/03/03 08:54:45;;;;;;;8.10;6.10;;;;;;;;;;5058921;28;20269;-69
2023/03/03 08:57:10;;;;;;;7.10;5.40;;;;;;;;;;5057668;28;20179;-69
2023/03/03 08:59:37;;;;;;;6.00;5.40;;;;;;;;;;5056860;28;20179;-69
2023/03/03 09:02:03;;;;;;;5.80;5.30;;;;;;;;;;5056666;28;20178;-69
2023/03/03 09:04:29;;;;;;;8.30;5.40;;;;;;;;;;5058844;28;20424;-69
2023/03/03 09:06:54;;;;;;;5.47;4.60;;;;;;;;;;5059266;28;20843;-69
2023/03/03 09:09:19;;;;;;;5.80;5.30;;;;;;;;;;5057015;28;20186;-69
2023/03/03 09:11:46;;;;;;;5.70;5.20;;;;;;;;;;5052975;28;20199;-69
2023/03/03 09:14:16;;;;;;;6.30;5.10;;;;;;;;;;5052737;28;20232;-69
2023/03/03 09:16:47;;;;;;;7.40;5.93;;;;;;;;;;5054685;28;20604;-69
2023/03/03 09:19:21;;;;;;;7.70;5.10;;;;;;;;;;5056304;28;20476;-69
2023/03/03 09:21:46;;;;;;;8.40;4.90;;;;;;;;;;5056063;28;20416;-69
2023/03/03 09:24:20;;;;;;;7.07;4.80;;;;;;;;;;5059414;28;20787;-70
2023/03/03 09:26:46;;;;;;;7.13;5.27;;;;;;;;;;5052734;28;20263;-69
2023/03/03 09:29:17;;;;;;;5.87;4.73;;;;;;;;;;5058583;28;20505;-69
2023/03/03 09:31:43;;;;;;;9.27;5.30;;;;;;;;;;5050294;28;20194;-69
2023/03/03 09:34:18;;;;;;;6.53;4.50;;;;;;;;;;5058917;28;20409;-69
2023/03/03 09:36:43;;;;;;;5.37;4.87;;;;;;;;;;5055613;28;20504;-70
2023/03/03 09:39:19;;;;;;;6.07;4.27;;;;;;;;;;5060157;28;20444;-69
2023/03/03 09:41:47;;;;;;;7.80;5.40;;;;;;;;;;5061022;28;20316;-69
2023/03/03 09:44:16;;;;;;;5.80;4.60;;;;;;;;;;5059647;28;20438;-69
2023/03/03 09:47:00;;;;;;;7.30;4.60;;;;;;;;;;5056421;28;20438;-69
2023/03/03 09:49:25;;;;;;;6.70;4.87;;;;;;;;;;5057616;28;20500;-69
2023/03/03 09:52:02;;;;;;;7.70;5.00;;;;;;;;;;5060027;28;21062;-69
2023/03/03 09:54:38;;;;;;;9.40;4.67;;;;;;;;;;5054310;28;20657;-69
2023/03/03 09:57:04;;;;;;;5.60;4.60;;;;;;;;;;5058608;28;20417;-69
2023/03/03 09:59:35;;;;;;;6.90;5.10;;;;;;;;;;5058614;28;20457;-69
2023/03/03 10:02:12;;;;;;;6.73;4.33;;;;;;;;;;5061179;28;20808;-70
2023/03/03 10:04:41;;;;;;;5.30;4.63;;;;;;;;;;5058602;28;20413;-70
2023/03/03 10:07:21;;;;;;;9.00;4.93;;;;;;;;;;5050370;28;20448;-69
2023/03/03 10:10:02;;;;;;;6.60;5.13;;;;;;;;;;5058834;28;20444;-69
2023/03/03 10:12:30;;;;;;;8.80;5.23;;;;;;;;;;5059291;28;20461;-69
2023/03/03 10:14:55;;;;;;;6.13;4.90;;;;;;;;;;5060383;28;20488;-70
2023/03/03 10:17:20;;;;;;;9.17;5.43;;;;;;;;;;5060391;28;20486;-69
2023/03/03 10:19:49;;;;;;;7.67;5.00;;;;;;;;;;5060782;28;20256;-69
2023/03/03 10:22:19;;;;;;;6.90;5.47;;;;;;;;;;5056357;28;20180;-69
2023/03/03 10:25:03;;;;;;;8.93;4.90;;;;;;;;;;5058238;28;20980;-69
2023/03/03 10:27:41;;;;;;;12.00;4.97;;;;;;;;;;5059447;28;20418;-69
2023/03/03 10:30:06;;;;;;;6.90;5.17;;;;;;;;;;5048699;28;20495;-69
2023/03/03 10:32:48;;;;;;;5.83;4.80;;;;;;;;;;5058028;28;20484;-70
2023/03/03 10:35:36;;;;;;;6.47;5.07;;;;;;;;;;5055884;28;20306;-70
2023/03/03 10:38:02;;;;;;;6.53;5.63;;;;;;;;;;5020461;28;20483;-70
2023/03/03 10:40:33;;;;;;;9.80;5.00;;;;;;;;;;5054794;28;20418;-70
2023/03/03 10:43:02;;;;;;;5.40;4.90;;;;;;;;;;5055572;28;20179;-70
2023/03/03 10:45:36;;;;;;;12.70;5.07;;;;;;;;;;5055564;28;20458;-70
2023/03/03 10:48:14;;;;;;;7.40;5.20;;;;;;;;;;5056562;28;20476;-70
2023/03/03 10:50:45;;;;;;;3.93;3.40;;;;;;;;;;5056957;28;20460;-70
2023/03/03 10:53:11;;;;;;;9.70;4.30;;;;;;;;;;5059165;28;20468;-70
2023/03/03 10:55:51;;;;;;;9.43;4.00;;;;;;;;;;5057601;28;20434;-70
2023/03/03 10:58:29;;;;;;;9.03;4.20;;;;;;;;;;5058151;28;20223;-70
2023/03/03 11:00:59;;;;;;;3.53;1.40;;;;;;;;;;5057450;28;20480;-70
2023/03/03 11:03:30;;;;;;;4.57;1.20;;;;;;;;;;5048784;28;20649;-70
2023/03/03 11:05:56;;;;;;;6.83;1.50;;;;;;;;;;5055532;28;20446;-70
2023/03/03 11:08:26;;;;;;;4.80;0.90;;;;;;;;;;5049251;28;20928;-70
2023/03/03 11:10:57;;;;;;;4.33;1.00;;;;;;;;;;5057460;28;20728;-70
2023/03/03 11:13:37;;;;;;;3.93;0.80;;;;;;;;;;5057066;28;20552;-70
2023/03/03 11:16:21;;;;;;;2.50;0.77;;;;;;;;;;5058566;28;20801;-71
2023/03/03 11:18:49;;;;;;;1.33;0.60;;;;;;;;;;5056617;28;20501;-70
2023/03/03 11:21:21;;;;;;;2.90;0.90;;;;;;;;;;5050997;28;20430;-70
2023/03/03 11:23:49;;;;;;;3.00;1.37;;;;;;;;;;5058919;28;20476;-70
2023/03/03 11:26:27;;;;;;;1.97;0.90;;;;;;;;;;5051626;28;20438;-70
2023/03/03 11:28:52;;;;;;;2.50;0.70;;;;;;;;;;5056581;28;20405;-70
2023/03/03 11:31:18;;;;;;;2.90;0.80;;;;;;;;;;5055253;28;20410;-70
2023/03/03 11:33:54;;;;;;;4.43;1.00;;;;;;;;;;5053745;28;20723;-71
2023/03/03 11:36:26;;;;;;;3.33;0.80;;;;;;;;;;5056733;28;20531;-70
2023/03/03 11:39:01;;;;;;;2.60;0.70;;;;;;;;;;5053984;28;20921;-70
2023/03/03 11:42:02;;;;;;;2.30;0.70;;;;;;;;;;5055745;28;20432;-70
2023/03/03 11:44:36;;;;;;;1.93;0.80;;;;;;;;;;4986802;28;20416;-70
2023/03/03 11:47:13;;;;;;;3.80;0.80;;;;;;;;;;5036847;28;20459;-70
2023/03/03 11:49:45;;;;;;;2.50;0.73;;;;;;;;;;5057199;28;20456;-70
2023/03/03 11:52:11;;;;;;;3.00;0.90;;;;;;;;;;5053185;28;20474;-69
2023/03/03 11:54:51;;;;;;;6.30;1.30;;;;;;;;;;5054975;28;20457;-69
2023/03/03 11:57:27;;;;;;;4.70;1.37;;;;;;;;;;5054930;28;20256;-69
2023/03/03 11:59:57;;;;;;;2.93;1.00;;;;;;;;;;5057636;28;20410;-69
2023/03/03 12:02:42;;;;;;;1.40;0.80;;;;;;;;;;5057127;28;20395;-69
2023/03/03 12:05:08;;;;;;;2.50;1.07;;;;;;;;;;5056758;28;20437;-69
2023/03/03 12:07:33;;;;;;;4.40;1.30;;;;;;;;;;5049821;28;21442;-69
2023/03/03 12:10:33;;;;;;;3.73;1.10;;;;;;;;;;5052828;28;20179;-69
2023/03/03 12:13:15;;;;;;;8.67;1.30;;;;;;;;;;4981910;28;20213;-69
2023/03/03 12:15:48;;;;;;;2.83;1.33;;;;;;;;;;5055500;28;20458;-69
2023/03/03 12:18:16;;;;;;;2.87;1.00;;;;;;;;;;5043338;28;20964;-71
2023/03/03 12:20:53;;;;;;;5.83;1.03;;;;;;;;;;5054916;28;20459;-71
2023/03/03 12:23:37;;;;;;;4.87;1.27;;;;;;;;;;5058249;28;20410;-71
2023/03/03 12:26:07;;;;;;;2.60;1.10;;;;;;;;;;5045496;28;20866;-71
2023/03/03 12:28:53;;;;;;;10.00;1.80;;;;;;;;;;5052422;28;20426;-71
2023/03/03 12:31:37;;;;;;;2.90;1.00;;;;;;;;;;5054634;28;20425;-71
2023/03/03 12:34:25;;;;;;;3.77;1.00;;;;;;;;;;5052101;28;20800;-71
2023/03/03 12:37:09;;;;;;;4.63;1.50;;;;;;;;;;5051031;28;20436;-70
2023/03/03 12:39:43;;;;;;;4.20;1.20;;;;;;;;;;5051478;22;20496;-71
2023/03/03 12:42:27;;;;;;;9.67;1.23;;;;;;;;;;5032874;28;20423;-71
2023/03/03 12:45:09;;;;;;;5.73;1.30;;;;;;;;;;5015850;28;20450;-71
2023/03/03 12:47:45;;;;;;;6.03;1.57;;;;;;;;;;5023850;28;20945;-71
2023/03/03 12:50:29;;;;;;;4.17;1.20;;;;;;;;;;5024903;28;20435;-71
2023/03/03 12:53:01;;;;;;;4.00;1.23;;;;;;;;;;5025685;28;20809;-71
2023/03/03 12:55:35;;;;;;;5.80;1.50;;;;;;;;;;5022013;28;20419;-70
2023/03/03 12:58:09;;;;;;;6.17;1.30;;;;;;;;;;5024456;28;20553;-70
2023/03/03 13:00:43;;;;;;;6.10;1.30;;;;;;;;;;5021030;28;20813;-71
2023/03/03 13:03:24;;;;;;;5.93;1.40;;;;;;;;;;5027098;28;20469;-71
2023/03/03 13:06:15;;;;;;;7.83;1.40;;;;;;;;;;5025029;28;20801;-71
2023/03/03 13:08:52;;;;;;;8.10;1.30;;;;;;;;;;5023986;28;20537;-71
2023/03/03 13:11:29;;;;;;;8.00;1.47;;;;;;;;;;5026858;28;21001;-71
2023/03/03 13:14:01;;;;;;;7.13;1.77;;;;;;;;;;5022473;28;21438;-71
2023/03/03 13:16:48;;;;;;;6.50;1.80;;;;;;;;;;5026623;28;20423;-71
2023/03/03 13:19:18;;;;;;;8.53;2.10;;;;;;;;;;5021970;28;20973;-71
2023/03/03 13:21:46;;;;;;;6.43;1.80;;;;;;;;;;5038537;28;20533;-71
2023/03/03 13:24:30;;;;;;;10.20;1.40;;;;;;;;;;5023489;28;20416;-71
2023/03/03 13:27:15;;;;;;;4.57;1.30;;;;;;;;;;5019611;28;20435;-71
2023/03/03 13:29:42;;;;;;;7.67;1.60;;;;;;;;;;5011086;28;20451;-71
2023/03/03 13:32:11;;;;;;;7.23;2.40;;;;;;;;;;5025406;28;20457;-71
2023/03/03 13:34:39;;;;;;;4.40;1.40;;;;;;;;;;5032014;28;20415;-71
2023/03/03 13:37:05;;;;;;;4.80;1.23;;;;;;;;;;5025702;28;20430;-71
2023/03/03 13:39:37;;;;;;;4.80;1.30;;;;;;;;;;5020453;28;20467;-70
2023/03/03 13:42:05;;;;;;;10.37;1.70;;;;;;;;;;5015214;28;20282;-71
2023/03/03 13:44:37;;;;;;;6.80;1.83;;;;;;;;;;5016752;28;20447;-72
2023/03/03 13:47:12;;;;;;;6.93;1.50;;;;;;;;;;5025906;28;20445;-72
2023/03/03 13:49:40;;;;;;;8.73;1.73;;;;;;;;;;5018418;28;20543;-72
2023/03/03 13:52:13;;;;;;;4.90;1.80;;;;;;;;;;5020396;28;20466;-72
2023/03/03 13:54:38;;;;;;;9.77;2.00;;;;;;;;;;5022738;28;20994;-72
2023/03/03 13:57:06;;;;;;;14.70;2.67;;;;;;;;;;5020682;28;20431;-72
2023/03/03 13:59:53;;;;;;;10.87;2.23;;;;;;;;;;5017171;28;20283;-72
2023/03/03 14:02:25;;;;;;;13.17;2.50;;;;;;;;;;5024768;28;20481;-72
2023/03/03 14:04:56;;;;;;;10.03;2.93;;;;;;;;;;5024842;28;20442;-72
2023/03/03 14:07:32;;;;;;;13.63;2.90;;;;;;;;;;5024826;28;20514;-72
2023/03/03 14:09:58;;;;;;;11.90;3.00;;;;;;;;;;5023801;28;20512;-72
2023/03/03 14:12:23;;;;;;;14.73;3.37;;;;;;;;;;5019837;28;21032;-72
2023/03/03 14:14:59;;;;;;;16.77;3.10;;;;;;;;;;5022515;28;20626;-72
2023/03/03 14:17:28;;;;;;;14.70;3.87;;;;;;;;;;5022575;28;20172;-72
2023/03/03 14:20:12;;;;;;;20.13;3.77;;;;;;;;;;5022025;28;20564;-72
2023/03/03 14:22:45;;;;;;;19.57;4.13;;;;;;;;;;5034193;28;20464;-72
2023/03/03 14:25:14;;;;;;;15.27;3.10;;;;;;;;;;5023918;28;20486;-72
2023/03/03 14:28:00;;;;;;;13.67;2.63;;;;;;;;;;5025180;28;20443;-72
2023/03/03 14:30:33;;;;;;;14.10;2.87;;;;;;;;;;5020423;28;20488;-72
2023/03/03 14:33:02;;;;;;;21.00;3.50;;;;;;;;;;5023156;28;20948;-72
2023/03/03 14:35:35;;;;;;;11.20;3.03;;;;;;;;;;5025383;28;20427;-72
2023/03/03 14:38:01;;;;;;;14.30;2.90;;;;;;;;;;5023587;28;20427;-72
2023/03/03 14:40:31;;;;;;;13.60;3.30;;;;;;;;;;5025758;28;20466;-72
2023/03/03 14:42:58;;;;;;;12.37;3.83;;;;;;;;;;5016200;28;20435;-71
2023/03/03 14:45:35;;;;;;;17.23;3.70;;;;;;;;;;5012121;28;20423;-72
2023/03/03 14:48:05;;;;;;;15.37;3.23;;;;;;;;;;5008780;28;20434;-72
2023/03/03 14:50:35;;;;;;;13.67;3.40;;;;;;;;;;5015149;28;20447;-72
2023/03/03 14:53:04;;;;;;;11.53;2.73;;;;;;;;;;5020833;28;20973;-71